Time;durP1;ratioP1;P1;durP2;ratioP2;P2;SDS_P1;SDS_P2;PMS_P1;PMS_P2;Temp;Humidity;BMP_temperature;BMP_pressure;BME280_temperature;BME280_humidity;BME280_pressure;Samples;Min_cycle;Max_cycle;Signal;HPM_P1;HPM_P2
2021/12/11 00:00:33;;;;;;;26.17;16.90;;;0.60;99.90;;;;;;6161438;23;20104;-72
2021/12/11 00:03:13;;;;;;;27.77;16.60;;;0.70;99.90;;;;;;6187656;23;20336;-72
2021/12/11 00:05:41;;;;;;;26.55;17.13;;;0.60;99.90;;;;;;6161772;23;20017;-73
2021/12/11 00:08:10;;;;;;;26.45;17.23;;;0.70;99.90;;;;;;6161847;23;20024;-72
2021/12/11 00:10:41;;;;;;;25.10;16.98;;;0.70;99.90;;;;;;6160801;23;20017;-71
2021/12/11 00:13:12;;;;;;;28.50;17.63;;;0.70;99.90;;;;;;6187398;23;20020;-71
2021/12/11 00:15:43;;;;;;;26.38;17.60;;;0.70;99.90;;;;;;6187640;23;20021;-71
2021/12/11 00:18:13;;;;;;;30.13;18.67;;;0.70;99.90;;;;;;6161523;23;20021;-72
2021/12/11 00:20:43;;;;;;;31.67;20.48;;;0.70;99.90;;;;;;6187789;23;20210;-72
2021/12/11 00:23:10;;;;;;;31.73;18.30;;;0.80;99.90;;;;;;6187140;23;20017;-73
2021/12/11 00:25:43;;;;;;;31.08;19.30;;;0.70;99.90;;;;;;6187690;23;20032;-71
2021/12/11 00:28:11;;;;;;;30.42;20.15;;;0.80;99.90;;;;;;6161775;23;20021;-71
2021/12/11 00:30:41;;;;;;;31.08;18.58;;;0.70;99.90;;;;;;6187303;23;20362;-73
2021/12/11 00:33:14;;;;;;;30.42;18.58;;;0.70;99.90;;;;;;6187617;23;20079;-72
2021/12/11 00:35:40;;;;;;;31.13;19.42;;;0.70;99.90;;;;;;6187198;23;20029;-72
2021/12/11 00:38:09;;;;;;;30.88;20.00;;;0.70;99.90;;;;;;6187406;23;20047;-73
2021/12/11 00:40:37;;;;;;;29.45;19.25;;;0.70;99.90;;;;;;6161869;23;20036;-73
2021/12/11 00:43:06;;;;;;;34.50;19.50;;;0.70;99.90;;;;;;6161606;23;20102;-72
2021/12/11 00:45:36;;;;;;;32.50;20.30;;;0.70;99.90;;;;;;6161422;23;20045;-73
2021/12/11 00:48:06;;;;;;;30.67;19.35;;;0.70;99.90;;;;;;6187151;23;20309;-72
2021/12/11 00:50:56;;;;;;;32.95;20.60;;;0.70;99.90;;;;;;6161294;23;20021;-73
2021/12/11 00:53:31;;;;;;;34.58;20.35;;;0.60;99.90;;;;;;6162492;23;20091;-71
2021/12/11 00:56:01;;;;;;;32.55;19.73;;;0.60;99.90;;;;;;6189358;23;20025;-71
2021/12/11 00:58:33;;;;;;;36.85;21.42;;;0.70;99.90;;;;;;6188835;23;20028;-72
2021/12/11 01:01:07;;;;;;;32.97;19.85;;;0.70;99.90;;;;;;6189304;23;20096;-72
2021/12/11 01:03:40;;;;;;;34.33;21.92;;;0.70;99.90;;;;;;6163212;23;20017;-73
2021/12/11 01:06:16;;;;;;;34.83;21.42;;;0.60;99.90;;;;;;6163342;23;20406;-70
2021/12/11 01:08:55;;;;;;;32.67;20.25;;;0.50;99.90;;;;;;6188738;23;20111;-70
2021/12/11 01:11:32;;;;;;;33.28;21.33;;;0.50;99.90;;;;;;6189009;23;20013;-71
2021/12/11 01:14:30;;;;;;;32.65;21.60;;;0.60;99.90;;;;;;6163235;23;20017;-71
2021/12/11 01:17:05;;;;;;;38.38;22.70;;;0.60;99.90;;;;;;6188915;23;20083;-71
2021/12/11 01:19:37;;;;;;;30.33;21.40;;;0.60;99.90;;;;;;6188941;23;20079;-72
2021/12/11 01:22:11;;;;;;;37.22;22.08;;;0.50;99.90;;;;;;6189260;23;20028;-73
2021/12/11 01:24:46;;;;;;;34.78;21.70;;;0.50;99.90;;;;;;6138715;23;20036;-71
2021/12/11 01:27:18;;;;;;;42.05;24.15;;;0.50;99.90;;;;;;6163147;23;20404;-72
2021/12/11 01:29:46;;;;;;;35.47;22.55;;;0.50;99.90;;;;;;6188797;23;20021;-71
2021/12/11 01:32:14;;;;;;;34.42;20.88;;;0.50;99.90;;;;;;6163196;23;20028;-71
2021/12/11 01:34:41;;;;;;;40.33;23.00;;;0.40;99.90;;;;;;6163321;23;20130;-71
2021/12/11 01:37:07;;;;;;;38.80;22.38;;;0.40;99.90;;;;;;6163026;23;20025;-71
2021/12/11 01:39:35;;;;;;;39.35;24.05;;;0.30;99.90;;;;;;6162967;23;20089;-70
2021/12/11 01:42:09;;;;;;;35.22;21.75;;;0.40;99.90;;;;;;6188954;23;20035;-73
2021/12/11 01:44:37;;;;;;;41.72;23.52;;;0.30;99.90;;;;;;6162601;23;20349;-72
2021/12/11 01:47:10;;;;;;;35.17;21.67;;;0.20;99.90;;;;;;6188714;23;20032;-70
2021/12/11 01:49:38;;;;;;;39.50;22.42;;;0.30;99.90;;;;;;6162736;23;20027;-69
2021/12/11 01:52:19;;;;;;;37.83;22.75;;;0.30;99.90;;;;;;6162990;23;20021;-71
2021/12/11 01:54:47;;;;;;;34.67;22.33;;;0.30;99.90;;;;;;6188680;23;20079;-72
2021/12/11 01:57:27;;;;;;;37.80;22.70;;;0.30;99.90;;;;;;6162875;23;20424;-71
2021/12/11 01:59:57;;;;;;;35.72;21.20;;;0.30;99.90;;;;;;6188285;23;20021;-70
2021/12/11 02:02:28;;;;;;;32.70;22.05;;;0.30;99.90;;;;;;6162649;23;20028;-71
2021/12/11 02:04:55;;;;;;;36.63;22.88;;;0.30;99.90;;;;;;6162322;23;20294;-73
2021/12/11 02:07:46;;;;;;;35.78;21.90;;;0.20;99.90;;;;;;6188457;23;20032;-70
2021/12/11 02:10:34;;;;;;;36.60;22.77;;;0.30;99.90;;;;;;6152041;23;20020;-72
2021/12/11 02:13:04;;;;;;;37.30;22.80;;;0.20;99.90;;;;;;6162641;23;20479;-71
2021/12/11 02:15:36;;;;;;;41.28;25.10;;;0.20;99.90;;;;;;6162634;23;20024;-72
2021/12/11 02:18:13;;;;;;;41.17;25.58;;;0.30;99.90;;;;;;6161948;23;20041;-71
2021/12/11 02:20:51;;;;;;;37.50;24.17;;;0.30;99.90;;;;;;6162626;23;20104;-74
2021/12/11 02:23:19;;;;;;;37.97;22.17;;;0.30;99.90;;;;;;6188756;23;20052;-71
2021/12/11 02:25:48;;;;;;;41.15;24.13;;;0.30;99.90;;;;;;6162276;23;20027;-70
2021/12/11 02:28:39;;;;;;;41.47;24.70;;;0.30;99.90;;;;;;6162087;23;20098;-74
2021/12/11 02:31:14;;;;;;;35.65;22.10;;;0.30;99.90;;;;;;6162607;23;20048;-70
2021/12/11 02:34:07;;;;;;;37.35;22.40;;;0.20;99.90;;;;;;6162161;23;20025;-72
2021/12/11 02:36:40;;;;;;;40.80;24.15;;;0.20;99.90;;;;;;6162234;23;20021;-72
2021/12/11 02:39:10;;;;;;;37.60;22.98;;;0.20;99.90;;;;;;6188340;23;20013;-74
2021/12/11 02:41:53;;;;;;;37.42;22.13;;;0.20;99.90;;;;;;6162509;23;20123;-70
2021/12/11 02:44:45;;;;;;;39.85;22.92;;;0.20;99.90;;;;;;6188337;23;20361;-73
2021/12/11 02:47:21;;;;;;;34.90;22.25;;;0.10;99.90;;;;;;6188091;23;20055;-71
2021/12/11 02:49:56;;;;;;;38.65;23.58;;;0.10;99.90;;;;;;6188169;23;20036;-72
2021/12/11 02:52:43;;;;;;;39.38;22.92;;;0.10;99.90;;;;;;6187952;23;20425;-71
2021/12/11 02:55:39;;;;;;;37.60;23.55;;;0.10;99.90;;;;;;6162467;23;20114;-73
2021/12/11 02:58:14;;;;;;;43.22;23.20;;;0.10;99.90;;;;;;6188494;23;20279;-72
2021/12/11 03:00:48;;;;;;;34.22;22.23;;;0.20;99.90;;;;;;6162116;23;20036;-72
2021/12/11 03:03:15;;;;;;;40.95;24.52;;;0.10;99.90;;;;;;6162255;23;20405;-71
2021/12/11 03:05:50;;;;;;;34.90;22.50;;;0.10;99.90;;;;;;6161403;23;20470;-71
2021/12/11 03:08:19;;;;;;;39.67;24.60;;;0.10;99.90;;;;;;6188319;23;20365;-71
2021/12/11 03:10:48;;;;;;;37.83;22.65;;;0.20;99.90;;;;;;6162136;23;20095;-72
2021/12/11 03:13:15;;;;;;;37.70;22.80;;;0.10;99.90;;;;;;6188324;23;20017;-71
2021/12/11 03:15:41;;;;;;;34.13;22.30;;;0.20;99.90;;;;;;6187932;23;20013;-72
2021/12/11 03:18:08;;;;;;;35.10;22.35;;;0.20;99.90;;;;;;6188242;23;20439;-72
2021/12/11 03:20:37;;;;;;;42.63;24.08;;;0.10;99.90;;;;;;6161900;23;20021;-72
2021/12/11 03:23:03;;;;;;;39.45;23.92;;;0.20;99.90;;;;;;6162387;23;20049;-71
2021/12/11 03:25:30;;;;;;;34.17;22.50;;;0.10;99.90;;;;;;6187775;23;20071;-71
2021/12/11 03:27:57;;;;;;;36.40;22.55;;;0.10;99.90;;;;;;6187565;23;20027;-73
2021/12/11 03:30:28;;;;;;;36.90;22.80;;;0.10;99.90;;;;;;6187577;23;20488;-72
2021/12/11 03:33:00;;;;;;;41.30;23.55;;;0.10;99.90;;;;;;6161339;23;20017;-72
2021/12/11 03:35:27;;;;;;;38.63;24.05;;;0.10;99.90;;;;;;6161964;23;20155;-72
2021/12/11 03:37:53;;;;;;;36.50;22.35;;;0.10;99.90;;;;;;6161885;23;20067;-71
2021/12/11 03:40:19;;;;;;;40.33;22.92;;;0.00;99.90;;;;;;6161734;23;20017;-73
2021/12/11 03:42:47;;;;;;;38.83;23.98;;;0.00;99.90;;;;;;6161946;23;20017;-71
2021/12/11 03:45:21;;;;;;;37.15;22.67;;;0.00;99.90;;;;;;6187730;23;20012;-71
2021/12/11 03:47:52;;;;;;;43.10;23.25;;;0.00;99.90;;;;;;6187500;23;20021;-74
2021/12/11 03:50:20;;;;;;;38.58;22.38;;;0.00;99.90;;;;;;6161391;23;20021;-73
2021/12/11 03:52:49;;;;;;;42.15;24.67;;;0.00;99.90;;;;;;6161241;23;20017;-72
2021/12/11 03:55:20;;;;;;;37.80;23.88;;;0.00;99.90;;;;;;6161899;23;20021;-71
2021/12/11 03:57:46;;;;;;;39.78;24.27;;;0.00;99.90;;;;;;6161656;23;20431;-72
2021/12/11 04:00:19;;;;;;;42.13;24.45;;;0.00;99.90;;;;;;6187125;23;20060;-72
2021/12/11 04:02:45;;;;;;;42.20;24.83;;;-0.10;99.90;;;;;;6187689;23;20108;-71
2021/12/11 04:05:12;;;;;;;45.72;24.83;;;-0.10;99.90;;;;;;6187859;23;20264;-72
2021/12/11 04:07:45;;;;;;;43.92;25.23;;;-0.10;99.90;;;;;;6187329;23;20056;-72
2021/12/11 04:10:14;;;;;;;43.47;25.38;;;-0.10;99.90;;;;;;6187190;23;20020;-72
2021/12/11 04:12:40;;;;;;;40.30;23.67;;;-0.10;99.90;;;;;;6187241;23;20317;-72
2021/12/11 04:15:09;;;;;;;39.78;25.15;;;-0.10;99.90;;;;;;6161891;23;20013;-70
2021/12/11 04:17:34;;;;;;;41.42;25.63;;;-0.10;99.90;;;;;;6161614;23;20092;-72
2021/12/11 04:20:11;;;;;;;40.40;25.52;;;-0.10;99.90;;;;;;6186856;23;20361;-72
2021/12/11 04:22:38;;;;;;;40.22;25.75;;;-0.10;99.90;;;;;;6161605;23;20017;-72
2021/12/11 04:25:06;;;;;;;37.47;23.60;;;-0.20;99.90;;;;;;6187215;23;20401;-72
2021/12/11 04:27:31;;;;;;;39.83;24.15;;;-0.20;99.90;;;;;;6187180;23;20059;-71
2021/12/11 04:29:57;;;;;;;39.58;23.35;;;-0.20;99.90;;;;;;6160945;23;20020;-72
2021/12/11 04:32:25;;;;;;;41.65;25.50;;;-0.30;99.90;;;;;;6187595;23;20028;-73
2021/12/11 04:34:51;;;;;;;38.42;23.42;;;-0.30;99.90;;;;;;6187115;23;20350;-72
2021/12/11 04:37:24;;;;;;;38.75;24.42;;;-0.20;99.90;;;;;;6187613;23;20361;-70
2021/12/11 04:39:57;;;;;;;39.10;23.00;;;-0.30;99.90;;;;;;6187285;23;20033;-71
2021/12/11 04:44:49;;;;;;;42.65;23.83;;;-0.30;99.90;;;;;;6161412;23;20483;-70
2021/12/11 04:47:40;;;;;;;43.88;23.77;;;-0.30;99.90;;;;;;6187782;23;20017;-71
2021/12/11 04:50:17;;;;;;;41.92;24.77;;;-0.40;99.90;;;;;;6186980;23;20017;-72
2021/12/11 04:52:54;;;;;;;39.05;23.00;;;-0.30;99.90;;;;;;6187264;23;20028;-72
2021/12/11 04:56:00;;;;;;;46.33;25.15;;;-0.40;99.90;;;;;;6187577;23;20021;-72
2021/12/11 04:58:45;;;;;;;38.25;23.85;;;-0.40;99.90;;;;;;6161188;23;20322;-71
2021/12/11 05:04:31;;;;;;;31.73;18.63;;;-0.40;99.90;;;;;;6187307;23;20025;-71
2021/12/11 05:10:00;;;;;;;42.45;24.25;;;-0.40;99.90;;;;;;6130204;23;20025;-72
2021/12/11 05:12:35;;;;;;;;;;;-0.40;99.90;;;;;;6161995;23;20021;-73
2021/12/11 05:15:25;;;;;;;37.15;22.83;;;-0.50;99.90;;;;;;6187201;23;19927;-71
2021/12/11 05:17:52;;;;;;;36.40;22.13;;;-0.40;99.90;;;;;;6186990;23;20013;-71
2021/12/11 05:20:20;;;;;;;41.72;24.15;;;-0.50;99.90;;;;;;6186349;23;20024;-70
2021/12/11 05:22:46;;;;;;;44.08;25.83;;;-0.50;99.90;;;;;;6161521;23;20436;-70
2021/12/11 05:25:13;;;;;;;45.35;24.88;;;-0.50;99.90;;;;;;6187261;23;20028;-70
2021/12/11 05:27:41;;;;;;;41.03;24.33;;;-0.60;99.90;;;;;;6161031;23;20417;-71
2021/12/11 05:30:11;;;;;;;39.42;23.58;;;-0.60;99.90;;;;;;6161088;23;20044;-74
2021/12/11 05:32:38;;;;;;;38.67;23.27;;;-0.60;99.90;;;;;;6161287;23;20420;-72
2021/12/11 05:35:05;;;;;;;45.13;24.90;;;-0.60;99.90;;;;;;6161120;23;20017;-72
2021/12/11 05:37:31;;;;;;;37.20;22.67;;;-0.60;99.90;;;;;;6160872;23;20014;-72
2021/12/11 05:39:57;;;;;;;40.70;23.70;;;-0.60;99.90;;;;;;6188319;23;20024;-71
2021/12/11 05:42:22;;;;;;;36.15;23.10;;;-0.60;99.90;;;;;;6188417;23;20025;-70
2021/12/11 05:44:48;;;;;;;40.10;23.75;;;-0.60;99.90;;;;;;6188946;23;20290;-71
2021/12/11 05:47:14;;;;;;;40.78;23.80;;;-0.70;99.90;;;;;;6163430;23;20017;-71
2021/12/11 05:49:41;;;;;;;38.25;23.25;;;-0.60;99.90;;;;;;6162895;23;20092;-72
2021/12/11 05:52:09;;;;;;;42.15;23.67;;;-0.70;99.90;;;;;;6162839;23;20017;-71
2021/12/11 05:54:36;;;;;;;40.90;23.80;;;-0.60;99.90;;;;;;6187196;23;20016;-72
2021/12/11 05:57:07;;;;;;;35.55;23.27;;;-0.60;99.90;;;;;;6189094;23;20025;-70
2021/12/11 05:59:33;;;;;;;35.40;22.80;;;-0.60;99.90;;;;;;6188672;23;20013;-72
2021/12/11 06:02:09;;;;;;;40.88;23.58;;;-0.60;99.90;;;;;;6162867;23;20524;-71
2021/12/11 06:04:38;;;;;;;40.13;23.45;;;-0.50;99.90;;;;;;6162599;23;20028;-73
2021/12/11 06:07:06;;;;;;;37.38;23.65;;;-0.60;99.90;;;;;;6188600;23;20020;-70
2021/12/11 06:09:33;;;;;;;40.35;24.42;;;-0.60;99.90;;;;;;6162312;23;20032;-72
2021/12/11 06:12:04;;;;;;;41.63;24.48;;;-0.60;99.90;;;;;;6162801;23;20050;-71
2021/12/11 06:14:31;;;;;;;41.63;23.85;;;-0.60;99.90;;;;;;6162220;23;20496;-72
2021/12/11 06:16:58;;;;;;;38.28;23.42;;;-0.50;99.90;;;;;;6162473;23;20025;-73
2021/12/11 06:19:25;;;;;;;39.13;23.17;;;-0.50;99.90;;;;;;6162795;23;20031;-71
2021/12/11 06:21:51;;;;;;;34.72;22.60;;;-0.50;99.90;;;;;;6162093;23;20021;-71
2021/12/11 06:24:19;;;;;;;41.25;24.27;;;-0.60;99.90;;;;;;6162703;23;20013;-71
2021/12/11 06:26:45;;;;;;;37.50;22.75;;;-0.60;99.90;;;;;;6188458;23;20021;-72
2021/12/11 06:29:11;;;;;;;42.38;24.27;;;-0.50;99.90;;;;;;6162413;23;20079;-70
2021/12/11 06:31:37;;;;;;;41.92;23.25;;;-0.50;99.90;;;;;;6188464;23;20418;-72
2021/12/11 06:34:03;;;;;;;38.33;23.33;;;-0.50;99.90;;;;;;6162488;23;20406;-71
2021/12/11 06:36:29;;;;;;;43.60;24.45;;;-0.50;99.90;;;;;;6187847;23;20025;-72
2021/12/11 06:39:00;;;;;;;40.10;24.08;;;-0.50;99.90;;;;;;6188554;23;20317;-71
2021/12/11 06:41:30;;;;;;;39.28;24.40;;;-0.50;99.90;;;;;;6162547;23;20134;-72
2021/12/11 06:43:56;;;;;;;42.92;24.88;;;-0.40;99.90;;;;;;6162329;23;20031;-72
2021/12/11 06:46:22;;;;;;;38.58;25.50;;;-0.50;99.90;;;;;;6188040;23;20088;-70
2021/12/11 06:48:48;;;;;;;42.63;23.48;;;-0.40;99.90;;;;;;6137751;23;20024;-70
2021/12/11 06:51:13;;;;;;;44.13;26.80;;;-0.40;99.90;;;;;;6161718;23;20424;-73
2021/12/11 06:53:49;;;;;;;48.42;26.90;;;-0.30;99.90;;;;;;6188263;23;20017;-69
2021/12/11 06:56:18;;;;;;;214.00;35.25;;;-0.30;99.90;;;;;;6162152;23;20425;-71
2021/12/11 06:58:44;;;;;;;56.95;25.70;;;-0.20;99.90;;;;;;6187693;23;20301;-70
2021/12/11 07:01:10;;;;;;;224.23;34.58;;;-0.20;99.90;;;;;;6162101;23;20048;-74
2021/12/11 07:03:37;;;;;;;160.30;28.13;;;-0.10;99.90;;;;;;6187948;23;20020;-71
2021/12/11 07:06:03;;;;;;;324.90;35.47;;;0.00;99.90;;;;;;6188229;23;20013;-71
2021/12/11 07:08:30;;;;;;;305.92;35.85;;;0.00;99.90;;;;;;6162068;23;20082;-70
2021/12/11 07:10:57;;;;;;;296.58;32.67;;;-0.10;99.90;;;;;;6161906;23;20471;-69
2021/12/11 07:13:23;;;;;;;342.02;36.15;;;-0.10;99.90;;;;;;6188134;23;20013;-71
2021/12/11 07:15:48;;;;;;;470.42;46.60;;;0.00;99.90;;;;;;6188488;23;20432;-69
2021/12/11 07:18:14;;;;;;;511.58;41.25;;;-0.10;99.90;;;;;;6161574;23;20472;-72
2021/12/11 07:20:40;;;;;;;305.05;31.95;;;-0.10;99.90;;;;;;6188026;23;20020;-71
2021/12/11 07:23:05;;;;;;;530.90;47.13;;;-0.10;99.90;;;;;;6187321;23;20060;-71
2021/12/11 07:25:43;;;;;;;377.75;37.47;;;0.00;99.90;;;;;;6186509;23;20079;-71
2021/12/11 07:28:10;;;;;;;276.63;34.22;;;-0.10;99.90;;;;;;6187399;23;20032;-71
2021/12/11 07:30:39;;;;;;;494.98;40.88;;;-0.10;99.90;;;;;;6187621;23;20023;-70
2021/12/11 07:33:05;;;;;;;450.40;40.72;;;-0.10;99.90;;;;;;6187036;23;20016;-71
2021/12/11 07:35:33;;;;;;;466.08;43.28;;;-0.10;99.90;;;;;;6187052;23;20028;-70
2021/12/11 07:37:59;;;;;;;311.40;34.80;;;0.00;99.90;;;;;;6187898;23;20028;-71
2021/12/11 07:40:28;;;;;;;727.33;55.08;;;-0.10;99.90;;;;;;6187814;23;20341;-70
2021/12/11 07:42:54;;;;;;;400.52;43.47;;;0.00;99.90;;;;;;6187748;23;20013;-73
2021/12/11 07:45:20;;;;;;;360.33;37.08;;;0.00;99.90;;;;;;6187682;23;20286;-72
2021/12/11 07:47:46;;;;;;;445.92;38.00;;;0.00;99.90;;;;;;6187983;23;20064;-70
2021/12/11 07:50:12;;;;;;;465.58;46.50;;;-0.10;99.90;;;;;;6187912;23;20017;-70
2021/12/11 07:52:39;;;;;;;399.77;40.67;;;0.00;99.90;;;;;;6187963;23;20064;-70
2021/12/11 07:55:05;;;;;;;657.20;50.28;;;0.00;99.90;;;;;;6187538;23;20028;-70
2021/12/11 07:57:31;;;;;;;411.77;41.00;;;0.00;99.90;;;;;;6187684;23;20372;-71
2021/12/11 07:59:56;;;;;;;241.52;33.20;;;-0.10;99.90;;;;;;6187289;23;20052;-71
2021/12/11 08:02:22;;;;;;;446.17;38.67;;;0.00;99.90;;;;;;6187293;23;20013;-70
2021/12/11 08:04:48;;;;;;;261.45;32.33;;;0.00;99.90;;;;;;6187552;23;20320;-70
2021/12/11 08:07:13;;;;;;;446.73;44.03;;;-0.10;99.90;;;;;;6187358;23;20306;-71
2021/12/11 08:09:39;;;;;;;319.35;35.53;;;-0.10;99.90;;;;;;6187628;23;20309;-70
2021/12/11 08:12:06;;;;;;;239.77;30.10;;;-0.10;99.90;;;;;;6187612;23;20025;-70
2021/12/11 08:14:32;;;;;;;352.20;39.25;;;-0.10;99.90;;;;;;6187240;23;20091;-70
2021/12/11 08:16:59;;;;;;;326.63;38.55;;;-0.10;99.90;;;;;;6187331;23;20021;-71
2021/12/11 08:19:27;;;;;;;343.85;37.72;;;-0.10;99.90;;;;;;6187505;23;20314;-71
2021/12/11 08:21:56;;;;;;;196.57;30.65;;;-0.20;99.90;;;;;;6187400;23;20084;-70
2021/12/11 08:24:23;;;;;;;232.30;30.65;;;-0.10;99.90;;;;;;6161452;23;20052;-71
2021/12/11 08:26:51;;;;;;;272.25;36.40;;;-0.10;99.90;;;;;;6161605;23;20030;-72
2021/12/11 08:29:18;;;;;;;125.35;26.52;;;0.00;99.90;;;;;;6187143;23;20072;-70
2021/12/11 08:31:47;;;;;;;162.63;31.35;;;0.00;99.90;;;;;;6187462;23;20035;-70
2021/12/11 08:34:13;;;;;;;98.82;31.25;;;0.00;99.90;;;;;;6187240;23;20028;-72
2021/12/11 08:36:40;;;;;;;69.65;29.48;;;0.00;99.90;;;;;;6187049;23;20378;-71
2021/12/11 08:39:09;;;;;;;50.70;28.88;;;0.10;99.90;;;;;;6186802;23;20021;-70
2021/12/11 08:41:35;;;;;;;66.65;28.85;;;0.20;99.90;;;;;;6161281;23;20028;-71
2021/12/11 08:44:07;;;;;;;44.35;25.85;;;0.20;99.90;;;;;;6186518;23;20017;-71
2021/12/11 08:46:34;;;;;;;41.63;25.80;;;0.20;99.90;;;;;;6187328;23;20028;-70
2021/12/11 08:49:06;;;;;;;42.15;26.10;;;0.20;99.90;;;;;;6187047;23;20314;-70
2021/12/11 08:51:39;;;;;;;41.17;24.25;;;0.20;99.90;;;;;;6186720;23;20029;-70
2021/12/11 08:54:07;;;;;;;37.30;24.23;;;0.20;99.90;;;;;;6187211;23;20056;-70
2021/12/11 08:56:35;;;;;;;40.20;24.40;;;0.20;99.90;;;;;;6187210;23;20032;-70
2021/12/11 08:59:02;;;;;;;37.67;24.20;;;0.20;99.90;;;;;;6187453;23;20045;-71
2021/12/11 09:01:54;;;;;;;38.80;25.48;;;0.20;99.90;;;;;;6187246;23;20021;-71
2021/12/11 09:04:43;;;;;;;35.88;24.70;;;0.30;99.90;;;;;;6182962;23;20021;-70
2021/12/11 09:07:18;;;;;;;37.42;23.55;;;0.30;99.90;;;;;;6187269;23;20062;-71
2021/12/11 09:10:06;;;;;;;45.17;26.80;;;0.30;99.90;;;;;;6187154;23;20009;-70
2021/12/11 09:12:42;;;;;;;38.22;24.25;;;0.40;99.90;;;;;;6187465;23;20064;-71
2021/12/11 09:15:20;;;;;;;40.13;26.00;;;0.40;99.90;;;;;;6162965;23;20020;-69
2021/12/11 09:17:51;;;;;;;41.38;25.67;;;0.50;99.90;;;;;;6188896;23;20476;-71
2021/12/11 09:20:24;;;;;;;42.58;24.08;;;0.60;99.90;;;;;;6189103;23;20031;-70
2021/12/11 09:23:12;;;;;;;37.57;24.27;;;0.60;99.90;;;;;;6189065;23;20405;-70
2021/12/11 09:26:04;;;;;;;38.85;25.05;;;0.70;99.90;;;;;;6188798;23;20099;-70
2021/12/11 09:28:35;;;;;;;43.47;24.67;;;0.80;99.90;;;;;;6189047;23;20027;-70
2021/12/11 09:31:34;;;;;;;45.63;25.80;;;0.90;99.90;;;;;;6189085;23;20024;-70
2021/12/11 09:34:08;;;;;;;44.17;25.70;;;1.10;99.90;;;;;;6188478;23;20017;-71
2021/12/11 09:36:39;;;;;;;45.73;25.30;;;1.10;99.90;;;;;;6162486;23;20031;-70
2021/12/11 09:39:16;;;;;;;42.05;24.40;;;1.20;99.90;;;;;;6163085;23;20017;-71
2021/12/11 09:41:45;;;;;;;46.65;24.40;;;1.20;99.90;;;;;;6188482;23;20452;-71
2021/12/11 09:44:19;;;;;;;41.50;25.25;;;1.20;99.90;;;;;;6188267;23;20434;-70
2021/12/11 09:46:51;;;;;;;42.75;25.27;;;1.20;99.90;;;;;;6188774;23;20060;-71
2021/12/11 09:49:21;;;;;;;42.30;25.75;;;1.30;99.90;;;;;;6188420;23;20028;-71
2021/12/11 09:51:51;;;;;;;42.25;24.92;;;1.40;99.90;;;;;;6188763;23;20127;-73
2021/12/11 09:54:22;;;;;;;43.38;25.70;;;1.40;99.90;;;;;;6162970;23;20356;-69
2021/12/11 09:57:02;;;;;;;43.28;25.50;;;1.40;99.90;;;;;;6188337;23;20080;-70
2021/12/11 09:59:33;;;;;;;44.65;26.83;;;1.50;99.90;;;;;;6162726;23;20031;-72
2021/12/11 10:02:07;;;;;;;47.05;29.27;;;1.70;99.90;;;;;;6189085;23;20017;-71
2021/12/11 10:04:39;;;;;;;55.33;28.05;;;1.80;99.90;;;;;;6188675;23;20009;-71
2021/12/11 10:07:24;;;;;;;48.40;29.65;;;2.00;99.90;;;;;;6188541;23;20020;-72
2021/12/11 10:09:53;;;;;;;47.10;27.27;;;2.10;99.90;;;;;;6188669;23;20088;-71
2021/12/11 10:12:25;;;;;;;48.30;27.60;;;2.30;99.90;;;;;;6188670;23;20020;-70
2021/12/11 10:15:38;;;;;;;46.03;28.58;;;2.30;99.90;;;;;;6188881;23;20309;-71
2021/12/11 10:18:08;;;;;;;47.40;27.92;;;2.30;99.90;;;;;;6188567;23;20073;-71
2021/12/11 10:20:44;;;;;;;44.28;26.25;;;2.30;99.90;;;;;;6188565;23;20017;-72
2021/12/11 10:23:16;;;;;;;47.30;26.67;;;2.40;99.90;;;;;;6188191;23;20063;-71
2021/12/11 10:25:44;;;;;;;49.75;28.77;;;2.40;99.90;;;;;;6188078;23;20009;-71
2021/12/11 10:28:13;;;;;;;49.28;28.52;;;2.30;99.90;;;;;;6188490;23;20025;-70
2021/12/11 10:30:47;;;;;;;45.55;27.55;;;2.30;99.90;;;;;;6162351;23;20087;-73
2021/12/11 10:33:15;;;;;;;47.00;27.17;;;2.30;99.90;;;;;;6188282;23;20032;-74
2021/12/11 10:35:46;;;;;;;45.72;27.80;;;2.30;99.90;;;;;;6187858;23;20429;-72
2021/12/11 10:38:12;;;;;;;49.65;27.55;;;2.30;99.90;;;;;;6188350;23;20024;-71
2021/12/11 10:40:43;;;;;;;42.92;25.50;;;2.40;99.90;;;;;;6187999;23;20017;-71
2021/12/11 10:43:14;;;;;;;48.00;27.70;;;2.50;99.90;;;;;;6188169;23;20455;-72
2021/12/11 10:45:41;;;;;;;48.20;28.67;;;2.50;99.90;;;;;;6187859;23;20017;-71
2021/12/11 10:48:11;;;;;;;56.28;28.08;;;2.70;99.90;;;;;;6162439;23;20088;-74
2021/12/11 10:50:46;;;;;;;46.83;25.63;;;2.70;99.90;;;;;;6188225;23;20028;-73
2021/12/11 10:53:16;;;;;;;56.33;27.58;;;2.70;99.90;;;;;;6188047;23;20308;-71
2021/12/11 10:55:41;;;;;;;46.88;26.30;;;2.80;99.90;;;;;;6187867;23;20027;-71
2021/12/11 10:58:20;;;;;;;42.35;24.95;;;2.90;99.90;;;;;;6188079;23;20302;-70
2021/12/11 11:01:00;;;;;;;44.30;24.95;;;3.00;99.90;;;;;;6161628;23;20107;-72
2021/12/11 11:03:30;;;;;;;45.20;25.70;;;3.10;99.90;;;;;;6187982;23;20017;-71
2021/12/11 11:05:57;;;;;;;46.28;26.85;;;3.10;99.90;;;;;;6161934;23;20325;-71
2021/12/11 11:08:22;;;;;;;48.03;27.08;;;3.20;99.90;;;;;;6187726;23;20480;-71
2021/12/11 11:10:55;;;;;;;49.88;27.73;;;3.30;99.90;;;;;;6187866;23;20055;-72
2021/12/11 11:13:22;;;;;;;47.10;26.92;;;3.40;99.90;;;;;;6187793;23;20027;-72
2021/12/11 11:15:50;;;;;;;44.25;24.80;;;3.40;99.90;;;;;;6187525;23;20488;-71
2021/12/11 11:18:21;;;;;;;44.15;25.70;;;3.40;99.90;;;;;;6188079;23;20032;-70
2021/12/11 11:21:12;;;;;;;49.80;25.70;;;3.60;99.90;;;;;;6187632;23;20056;-72
2021/12/11 11:23:40;;;;;;;47.47;25.05;;;3.60;99.90;;;;;;6186621;23;20329;-71
2021/12/11 11:26:11;;;;;;;45.00;24.48;;;3.60;99.90;;;;;;6187887;23;20043;-72
2021/12/11 11:28:37;;;;;;;41.95;25.17;;;3.60;99.90;;;;;;6188009;23;20075;-73
2021/12/11 11:31:11;;;;;;;43.22;25.50;;;3.70;99.90;;;;;;6161688;23;20409;-72
2021/12/11 11:33:38;;;;;;;48.25;25.80;;;3.80;99.90;;;;;;6187241;23;20021;-71
2021/12/11 11:36:07;;;;;;;44.25;24.95;;;3.90;99.90;;;;;;6161735;23;20460;-74
2021/12/11 11:38:35;;;;;;;43.75;24.85;;;3.90;99.90;;;;;;6187461;23;20096;-72
2021/12/11 11:41:05;;;;;;;40.47;23.15;;;4.00;99.90;;;;;;6187520;23;20353;-72
2021/12/11 11:43:31;;;;;;;42.35;22.60;;;4.20;99.90;;;;;;6187649;23;20295;-71
2021/12/11 11:45:57;;;;;;;43.10;25.30;;;4.20;99.90;;;;;;6187697;23;20027;-73
2021/12/11 11:48:25;;;;;;;39.25;24.13;;;4.30;99.90;;;;;;6161951;23;20013;-71
2021/12/11 11:50:53;;;;;;;42.42;23.52;;;4.40;99.90;;;;;;6187421;23;20017;-71
2021/12/11 11:53:24;;;;;;;38.55;22.60;;;4.50;99.90;;;;;;6161850;23;20520;-71
2021/12/11 11:55:58;;;;;;;47.22;23.27;;;4.60;99.90;;;;;;6186956;23;20031;-72
2021/12/11 11:58:27;;;;;;;39.08;21.63;;;4.70;99.90;;;;;;6186891;23;20103;-73
2021/12/11 12:00:58;;;;;;;35.65;22.05;;;4.80;99.90;;;;;;6187422;23;20071;-71
2021/12/11 12:03:28;;;;;;;42.03;23.83;;;4.90;99.90;;;;;;6187494;23;20055;-73
2021/12/11 12:05:58;;;;;;;37.00;20.00;;;4.80;99.90;;;;;;6187519;23;20421;-72
2021/12/11 12:08:24;;;;;;;39.63;22.02;;;4.80;99.90;;;;;;6160953;23;20021;-71
2021/12/11 12:10:52;;;;;;;44.45;22.15;;;4.80;99.90;;;;;;6187402;23;20107;-71
2021/12/11 12:13:22;;;;;;;41.97;21.55;;;4.80;99.90;;;;;;6187362;23;20020;-72
2021/12/11 12:15:53;;;;;;;42.53;22.20;;;4.80;99.90;;;;;;6187368;23;20017;-70
2021/12/11 12:18:20;;;;;;;36.33;22.48;;;5.00;99.90;;;;;;6160782;23;20021;-73
2021/12/11 12:20:48;;;;;;;40.03;22.45;;;5.00;99.90;;;;;;6186501;23;20096;-73
2021/12/11 12:23:15;;;;;;;40.42;22.08;;;5.10;99.90;;;;;;6161003;23;20017;-72
2021/12/11 12:25:43;;;;;;;41.25;22.13;;;5.20;99.90;;;;;;6187259;23;20045;-71
2021/12/11 12:28:09;;;;;;;39.63;21.40;;;5.20;99.90;;;;;;6187419;23;20024;-72
2021/12/11 12:30:56;;;;;;;38.65;21.35;;;5.30;99.90;;;;;;6187280;23;20017;-72
2021/12/11 12:33:22;;;;;;;41.13;20.23;;;5.40;99.90;;;;;;6160765;23;20317;-72
2021/12/11 12:35:48;;;;;;;33.22;20.90;;;5.50;99.90;;;;;;6186462;23;20013;-72
2021/12/11 12:38:18;;;;;;;42.95;20.58;;;5.60;99.90;;;;;;6187473;23;20096;-71
2021/12/11 12:40:59;;;;;;;37.10;21.48;;;5.50;99.90;;;;;;6186514;23;20104;-73
2021/12/11 12:46:34;;;;;;;31.15;20.52;;;5.60;99.90;;;;;;6187276;23;20075;-73
2021/12/11 12:49:00;;;;;;;35.88;19.67;;;5.70;99.90;;;;;;6188009;23;20096;-71
2021/12/11 12:51:27;;;;;;;34.50;19.50;;;5.70;99.90;;;;;;6189721;23;20342;-71
2021/12/11 12:53:56;;;;;;;30.50;19.67;;;5.90;99.90;;;;;;6163377;23;20105;-71
2021/12/11 12:56:34;;;;;;;40.70;20.40;;;5.90;99.90;;;;;;6189199;23;20013;-71
2021/12/11 12:59:10;;;;;;;29.02;18.25;;;6.00;99.90;;;;;;6188612;23;20750;-71
2021/12/11 13:01:48;;;;;;;33.40;19.40;;;5.90;99.90;;;;;;6189242;23;20013;-71
2021/12/11 13:04:17;;;;;;;32.30;19.02;;;6.00;99.90;;;;;;6189198;23;20017;-71